Terminal Aerodrome Forecast
Issued by NWS Blacksburg, VA

Current Version | Previous Version | Graphics & Text | Print | Product List | Glossary On
Versions: 1 2 3 4 5 6 7 8 9 10 11 12 13 14 15 16 17 18
000
FTUS41 KRNK 221130
TAFBLF
TAF
KBLF 221130Z 2212/2312 25006KT P6SM FEW060 SCT110
     FM221300 27008KT 6SM -SHRA BKN025 OVC080
     FM221600 29010KT 3SM -SHRA SCT015 OVC025
     FM222000 29013G25KT P6SM SCT018 OVC030
     FM230100 31011KT P6SM SKC
     FM230600 30012KT P6SM SCT250=

USA.gov is the U.S. government's official web portal to all federal, state and local government web resources and services.